sensor_id;sensor_type;location;lat;lon;timestamp;temperature;humidity
75517;DHT22;64097;52.548;13.406;2023-11-21T06:03:33;12.50;59.50
75517;DHT22;64097;52.548;13.406;2023-11-21T06:05:59;12.50;60.00
75517;DHT22;64097;52.548;13.406;2023-11-21T06:08:24;12.50;58.80
75517;DHT22;64097;52.548;13.406;2023-11-21T06:10:50;12.50;58.80
75517;DHT22;64097;52.548;13.406;2023-11-21T06:13:15;12.40;58.80
75517;DHT22;64097;52.548;13.406;2023-11-21T06:15:42;12.40;59.00
75517;DHT22;64097;52.548;13.406;2023-11-21T06:18:07;12.40;59.10
75517;DHT22;64097;52.548;13.406;2023-11-21T06:20:35;12.40;58.70
75517;DHT22;64097;52.548;13.406;2023-11-21T06:23:03;12.40;58.70
75517;DHT22;64097;52.548;13.406;2023-11-21T06:25:29;12.40;58.40
75517;DHT22;64097;52.548;13.406;2023-11-21T06:27:58;12.30;58.30
75517;DHT22;64097;52.548;13.406;2023-11-21T06:30:24;12.30;58.30
75517;DHT22;64097;52.548;13.406;2023-11-21T06:32:49;12.20;58.50
75517;DHT22;64097;52.548;13.406;2023-11-21T06:35:16;12.30;58.70
75517;DHT22;64097;52.548;13.406;2023-11-21T06:37:42;12.30;58.50
75517;DHT22;64097;52.548;13.406;2023-11-21T06:40:13;12.30;58.70
75517;DHT22;64097;52.548;13.406;2023-11-21T06:42:41;12.20;58.50
75517;DHT22;64097;52.548;13.406;2023-11-21T06:45:07;12.30;58.50
75517;DHT22;64097;52.548;13.406;2023-11-21T06:47:33;12.30;58.60
75517;DHT22;64097;52.548;13.406;2023-11-21T06:49:59;12.20;58.20
75517;DHT22;64097;52.548;13.406;2023-11-21T06:52:27;12.30;58.30
75517;DHT22;64097;52.548;13.406;2023-11-21T06:54:52;12.20;58.40
75517;DHT22;64097;52.548;13.406;2023-11-21T06:57:18;12.30;58.00
75517;DHT22;64097;52.548;13.406;2023-11-21T06:59:44;12.20;58.00
75517;DHT22;64097;52.548;13.406;2023-11-21T07:02:10;12.20;58.10
75517;DHT22;64097;52.548;13.406;2023-11-21T07:04:36;12.10;58.20
75517;DHT22;64097;52.548;13.406;2023-11-21T07:07:06;12.10;58.20
75517;DHT22;64097;52.548;13.406;2023-11-21T07:09:32;12.10;58.60
75517;DHT22;64097;52.548;13.406;2023-11-21T07:11:59;12.10;58.50
75517;DHT22;64097;52.548;13.406;2023-11-21T07:14:25;12.10;58.80
75517;DHT22;64097;52.548;13.406;2023-11-21T07:16:51;12.10;58.80
75517;DHT22;64097;52.548;13.406;2023-11-21T07:19:18;12.20;58.70
75517;DHT22;64097;52.548;13.406;2023-11-21T07:21:43;12.20;58.80
75517;DHT22;64097;52.548;13.406;2023-11-21T07:24:09;12.20;58.50
75517;DHT22;64097;52.548;13.406;2023-11-21T07:26:36;12.20;58.30
75517;DHT22;64097;52.548;13.406;2023-11-21T07:29:03;12.20;58.80
75517;DHT22;64097;52.548;13.406;2023-11-21T07:31:29;12.20;58.50
75517;DHT22;64097;52.548;13.406;2023-11-21T07:33:55;12.20;58.40
75517;DHT22;64097;52.548;13.406;2023-11-21T07:36:25;12.20;58.50
75517;DHT22;64097;52.548;13.406;2023-11-21T07:38:51;12.20;58.40
75517;DHT22;64097;52.548;13.406;2023-11-21T07:41:18;12.30;58.60
75517;DHT22;64097;52.548;13.406;2023-11-21T07:43:45;12.30;58.30
75517;DHT22;64097;52.548;13.406;2023-11-21T07:46:11;12.30;58.40
75517;DHT22;64097;52.548;13.406;2023-11-21T07:48:42;12.30;58.30
75517;DHT22;64097;52.548;13.406;2023-11-21T07:51:08;12.30;58.10
75517;DHT22;64097;52.548;13.406;2023-11-21T07:53:35;12.20;57.90
75517;DHT22;64097;52.548;13.406;2023-11-21T07:56:05;12.10;57.60
75517;DHT22;64097;52.548;13.406;2023-11-21T07:58:31;12.10;58.10
75517;DHT22;64097;52.548;13.406;2023-11-21T08:00:59;12.20;58.40
75517;DHT22;64097;52.548;13.406;2023-11-21T08:03:25;12.10;58.10
75517;DHT22;64097;52.548;13.406;2023-11-21T08:05:52;12.20;58.10
75517;DHT22;64097;52.548;13.406;2023-11-21T08:08:18;12.20;57.60
75517;DHT22;64097;52.548;13.406;2023-11-21T08:10:44;12.20;58.20
75517;DHT22;64097;52.548;13.406;2023-11-21T08:13:22;12.20;58.20
75517;DHT22;64097;52.548;13.406;2023-11-21T08:15:47;12.30;58.20
75517;DHT22;64097;52.548;13.406;2023-11-21T08:18:13;12.30;57.70
75517;DHT22;64097;52.548;13.406;2023-11-21T08:20:40;12.30;57.90
75517;DHT22;64097;52.548;13.406;2023-11-21T08:23:06;12.20;57.70
75517;DHT22;64097;52.548;13.406;2023-11-21T08:25:32;12.30;57.70
75517;DHT22;64097;52.548;13.406;2023-11-21T08:28:00;12.20;57.20
75517;DHT22;64097;52.548;13.406;2023-11-21T08:30:26;12.20;57.50
75517;DHT22;64097;52.548;13.406;2023-11-21T08:32:55;12.20;57.20
75517;DHT22;64097;52.548;13.406;2023-11-21T08:35:24;12.10;57.20
75517;DHT22;64097;52.548;13.406;2023-11-21T08:37:51;12.10;57.20
75517;DHT22;64097;52.548;13.406;2023-11-21T08:40:19;12.10;57.50
75517;DHT22;64097;52.548;13.406;2023-11-21T08:42:45;12.10;57.90
75517;DHT22;64097;52.548;13.406;2023-11-21T08:45:11;12.10;57.90
75517;DHT22;64097;52.548;13.406;2023-11-21T08:47:38;12.20;57.70
75517;DHT22;64097;52.548;13.406;2023-11-21T08:50:06;12.20;58.10
75517;DHT22;64097;52.548;13.406;2023-11-21T08:52:33;12.20;57.50
75517;DHT22;64097;52.548;13.406;2023-11-21T08:54:59;12.20;57.60
75517;DHT22;64097;52.548;13.406;2023-11-21T08:57:28;12.20;57.60
75517;DHT22;64097;52.548;13.406;2023-11-21T08:59:55;12.20;57.50
75517;DHT22;64097;52.548;13.406;2023-11-21T09:02:26;12.20;57.70
75517;DHT22;64097;52.548;13.406;2023-11-21T09:04:52;12.30;57.90
75517;DHT22;64097;52.548;13.406;2023-11-21T09:07:20;12.30;57.20
75517;DHT22;64097;52.548;13.406;2023-11-21T09:09:47;12.30;57.10
75517;DHT22;64097;52.548;13.406;2023-11-21T09:12:13;12.20;56.80
75517;DHT22;64097;52.548;13.406;2023-11-21T09:14:39;12.10;57.20
75517;DHT22;64097;52.548;13.406;2023-11-21T09:17:05;12.10;57.50
75517;DHT22;64097;52.548;13.406;2023-11-21T09:19:37;12.10;57.40
75517;DHT22;64097;52.548;13.406;2023-11-21T09:22:03;12.10;57.50
75517;DHT22;64097;52.548;13.406;2023-11-21T09:24:33;12.20;57.40
75517;DHT22;64097;52.548;13.406;2023-11-21T09:26:59;12.20;57.60
75517;DHT22;64097;52.548;13.406;2023-11-21T09:29:28;12.20;57.50
75517;DHT22;64097;52.548;13.406;2023-11-21T09:31:54;12.20;57.00
75517;DHT22;64097;52.548;13.406;2023-11-21T09:34:21;12.20;56.80
75517;DHT22;64097;52.548;13.406;2023-11-21T09:36:47;12.10;56.80
75517;DHT22;64097;52.548;13.406;2023-11-21T09:39:13;12.00;57.00
75517;DHT22;64097;52.548;13.406;2023-11-21T09:41:56;11.90;57.50
75517;DHT22;64097;52.548;13.406;2023-11-21T09:44:35;11.80;57.60
75517;DHT22;64097;52.548;13.406;2023-11-21T09:47:02;11.90;57.90
75517;DHT22;64097;52.548;13.406;2023-11-21T09:49:28;11.90;57.90
75517;DHT22;64097;52.548;13.406;2023-11-21T09:52:01;11.90;57.60
75517;DHT22;64097;52.548;13.406;2023-11-21T09:54:30;11.90;57.50
75517;DHT22;64097;52.548;13.406;2023-11-21T09:56:59;11.90;57.60
75517;DHT22;64097;52.548;13.406;2023-11-21T09:59:30;11.90;57.70
75517;DHT22;64097;52.548;13.406;2023-11-21T10:01:57;12.00;57.30
75517;DHT22;64097;52.548;13.406;2023-11-21T10:04:23;12.00;57.30
75517;DHT22;64097;52.548;13.406;2023-11-21T10:06:50;12.00;57.10
75517;DHT22;64097;52.548;13.406;2023-11-21T10:09:17;12.00;57.10
75517;DHT22;64097;52.548;13.406;2023-11-21T10:11:47;12.00;57.30
75517;DHT22;64097;52.548;13.406;2023-11-21T10:14:13;12.00;57.50
75517;DHT22;64097;52.548;13.406;2023-11-21T10:16:40;12.00;57.60
75517;DHT22;64097;52.548;13.406;2023-11-21T10:19:10;12.00;57.70
75517;DHT22;64097;52.548;13.406;2023-11-21T10:21:36;12.00;57.60
75517;DHT22;64097;52.548;13.406;2023-11-21T10:24:03;12.00;57.30
75517;DHT22;64097;52.548;13.406;2023-11-21T10:26:28;12.00;57.80
75517;DHT22;64097;52.548;13.406;2023-11-21T10:29:01;12.00;57.60
75517;DHT22;64097;52.548;13.406;2023-11-21T10:31:31;12.00;57.80
75517;DHT22;64097;52.548;13.406;2023-11-21T10:34:17;12.00;57.90
75517;DHT22;64097;52.548;13.406;2023-11-21T10:36:44;12.00;58.20
75517;DHT22;64097;52.548;13.406;2023-11-21T10:39:17;12.00;58.20
75517;DHT22;64097;52.548;13.406;2023-11-21T10:41:47;12.00;58.00
75517;DHT22;64097;52.548;13.406;2023-11-21T10:44:19;11.90;58.00
75517;DHT22;64097;52.548;13.406;2023-11-21T10:46:54;11.90;58.10
75517;DHT22;64097;52.548;13.406;2023-11-21T10:49:26;11.90;58.40
75517;DHT22;64097;52.548;13.406;2023-11-21T10:51:53;11.80;58.40
75517;DHT22;64097;52.548;13.406;2023-11-21T10:54:28;11.80;58.50
75517;DHT22;64097;52.548;13.406;2023-11-21T10:57:00;11.80;58.70
75517;DHT22;64097;52.548;13.406;2023-11-21T10:59:30;11.70;58.80
75517;DHT22;64097;52.548;13.406;2023-11-21T11:01:58;11.70;59.00
75517;DHT22;64097;52.548;13.406;2023-11-21T11:04:27;11.70;58.90
75517;DHT22;64097;52.548;13.406;2023-11-21T11:07:02;11.70;58.80
75517;DHT22;64097;52.548;13.406;2023-11-21T11:09:31;11.70;59.00
75517;DHT22;64097;52.548;13.406;2023-11-21T11:12:02;11.70;59.20
75517;DHT22;64097;52.548;13.406;2023-11-21T11:14:29;11.70;58.80
75517;DHT22;64097;52.548;13.406;2023-11-21T11:16:55;11.70;58.70
75517;DHT22;64097;52.548;13.406;2023-11-21T11:19:21;11.70;58.60
75517;DHT22;64097;52.548;13.406;2023-11-21T11:38:46;11.70;58.90
75517;DHT22;64097;52.548;13.406;2023-11-21T11:41:12;11.60;58.90
75517;DHT22;64097;52.548;13.406;2023-11-21T11:43:38;11.60;58.70
75517;DHT22;64097;52.548;13.406;2023-11-21T11:46:10;11.70;59.00
75517;DHT22;64097;52.548;13.406;2023-11-21T11:48:39;11.70;58.90
75517;DHT22;64097;52.548;13.406;2023-11-21T11:51:12;11.70;58.60
75517;DHT22;64097;52.548;13.406;2023-11-21T11:53:41;11.70;58.50
75517;DHT22;64097;52.548;13.406;2023-11-21T11:58:45;11.70;58.40
75517;DHT22;64097;52.548;13.406;2023-11-21T12:01:12;11.70;58.40
75517;DHT22;64097;52.548;13.406;2023-11-21T12:03:39;11.70;58.60
75517;DHT22;64097;52.548;13.406;2023-11-21T12:06:05;11.70;58.30
75517;DHT22;64097;52.548;13.406;2023-11-21T12:08:32;11.70;58.30
75517;DHT22;64097;52.548;13.406;2023-11-21T12:10:58;11.70;57.90
75517;DHT22;64097;52.548;13.406;2023-11-21T12:13:24;11.60;57.80
75517;DHT22;64097;52.548;13.406;2023-11-21T12:15:50;11.60;58.20
75517;DHT22;64097;52.548;13.406;2023-11-21T12:18:16;11.50;58.30
75517;DHT22;64097;52.548;13.406;2023-11-21T12:20:41;11.50;58.60
75517;DHT22;64097;52.548;13.406;2023-11-21T12:23:08;11.60;58.70
75517;DHT22;64097;52.548;13.406;2023-11-21T12:25:40;11.60;58.70
75517;DHT22;64097;52.548;13.406;2023-11-21T12:28:06;11.60;59.00
75517;DHT22;64097;52.548;13.406;2023-11-21T12:30:34;11.60;58.80
75517;DHT22;64097;52.548;13.406;2023-11-21T12:33:02;11.50;59.20
75517;DHT22;64097;52.548;13.406;2023-11-21T12:35:32;11.60;59.30
75517;DHT22;64097;52.548;13.406;2023-11-21T12:38:02;11.50;59.30
75517;DHT22;64097;52.548;13.406;2023-11-21T12:40:28;11.50;59.40
75517;DHT22;64097;52.548;13.406;2023-11-21T12:42:59;11.50;59.50
75517;DHT22;64097;52.548;13.406;2023-11-21T12:45:28;11.50;59.40
75517;DHT22;64097;52.548;13.406;2023-11-21T12:48:00;11.50;59.00
75517;DHT22;64097;52.548;13.406;2023-11-21T12:50:29;11.40;59.10
75517;DHT22;64097;52.548;13.406;2023-11-21T12:53:02;11.50;59.40
75517;DHT22;64097;52.548;13.406;2023-11-21T12:55:35;11.40;59.30
75517;DHT22;64097;52.548;13.406;2023-11-21T12:58:07;11.30;59.20
75517;DHT22;64097;52.548;13.406;2023-11-21T13:00:44;11.30;59.50
75517;DHT22;64097;52.548;13.406;2023-11-21T13:03:12;11.40;59.50
75517;DHT22;64097;52.548;13.406;2023-11-21T13:05:41;11.40;59.30
75517;DHT22;64097;52.548;13.406;2023-11-21T13:08:12;11.40;59.40
75517;DHT22;64097;52.548;13.406;2023-11-21T13:10:44;11.40;59.00
75517;DHT22;64097;52.548;13.406;2023-11-21T13:13:12;11.40;58.70
75517;DHT22;64097;52.548;13.406;2023-11-21T13:15:51;11.30;58.70
75517;DHT22;64097;52.548;13.406;2023-11-21T13:18:18;11.30;58.40
75517;DHT22;64097;52.548;13.406;2023-11-21T13:20:47;11.30;58.40
75517;DHT22;64097;52.548;13.406;2023-11-21T13:23:13;11.20;58.10
75517;DHT22;64097;52.548;13.406;2023-11-21T13:25:42;11.20;58.30
75517;DHT22;64097;52.548;13.406;2023-11-21T13:28:08;11.20;58.40
75517;DHT22;64097;52.548;13.406;2023-11-21T13:30:35;11.20;58.10
75517;DHT22;64097;52.548;13.406;2023-11-21T13:33:04;11.10;58.10
75517;DHT22;64097;52.548;13.406;2023-11-21T13:35:36;11.10;58.30
75517;DHT22;64097;52.548;13.406;2023-11-21T13:38:13;11.10;58.50
75517;DHT22;64097;52.548;13.406;2023-11-21T13:40:40;11.10;58.50
75517;DHT22;64097;52.548;13.406;2023-11-21T13:43:12;11.10;58.20
75517;DHT22;64097;52.548;13.406;2023-11-21T13:45:39;11.10;58.30
75517;DHT22;64097;52.548;13.406;2023-11-21T13:48:06;11.10;58.20
75517;DHT22;64097;52.548;13.406;2023-11-21T13:50:43;11.10;58.40
75517;DHT22;64097;52.548;13.406;2023-11-21T13:53:24;11.00;58.50
75517;DHT22;64097;52.548;13.406;2023-11-21T13:55:51;11.00;58.50
75517;DHT22;64097;52.548;13.406;2023-11-21T13:58:20;11.00;58.60
